Pagina principale
METAR-TAF:

METAR-TAF

Aeroporti :

Aeroporto di Roma-Fiumicino

Roma-Fiumicino, Italia

latitudine: 41-48N, longitudine: 012-14E, altezza: 2 m

Osservazione

Il bollettino è stato emesso 31 minuti fa, alle 02:20 UTC
Vento 7 kt da sud/sud-ovest
Temperature 18°C
Umidità 77%
Pressione 1015 hPa
Visibilità 10 km o più
Poco nuvoloso ad un'altezza di 2500 ft

METAR: LIRF 160220Z 20007KT 9999 FEW025 18/14 Q1015 NOSIG

Ora: 04:51 (02:51 UTC)

Previsione

Il bollettino è stato emesso 3 ore e 51 minuti fa, alle 23:00 UTC
Previsione valida dal 16 alle 00 UTC al 17 alle 06 UTC
Vento 8 kt da ovest/sud-ovest
Visibilità 10 km o più
Nubi sparse ad un'altezza di 4000 ft
Evoluzione graduale
dal 16 alle 07 UTC al 16 alle 09 UTC
Vento 10 kt da sud/sud-est
Evoluzione graduale
dal 16 alle 14 UTC al 16 alle 16 UTC
Vento 5 kt da direzioni variabili

TAF: LIRF 152300Z 1600/1706 24008KT 9999 SCT040 BECMG 1607/1609 16010KT BECMG 1614/1616 VRB05KT

Osservazioni e previsioni meteorologiche di più di 4000 aeroporti (messaggi METAR e TAF).

Le stazioni disponibili sono rappresentate dai dischi gialli e rossi sulla carta.

Puntare il mouse per vedere il nome della stazione.

Clicca sopra per visualizzare le osservazioni e previsioni meteorologiche.

Per cambiare la mappa : fare clic sui pulsanti verdi con una croce nera per ingrandire, il pulsante verde con un trattino per diminuire, o sulla freccia verde per le mappe adiacenti.


METAR-TAF: